sensor_id;sensor_type;location;lat;lon;timestamp;pressure;altitude;pressure_sealevel;temperature;humidity
45541;BME280;31265;49.680;8.608;2023-07-28T00:00:39;99792.22;;;17.11;100.00
45541;BME280;31265;49.680;8.608;2023-07-28T00:03:08;99784.53;;;17.12;100.00
45541;BME280;31265;49.680;8.608;2023-07-28T00:05:37;99782.66;;;17.16;100.00
45541;BME280;31265;49.680;8.608;2023-07-28T00:08:05;99784.31;;;17.22;100.00
45541;BME280;31265;49.680;8.608;2023-07-28T00:10:39;99783.38;;;17.17;100.00
45541;BME280;31265;49.680;8.608;2023-07-28T00:13:09;99782.13;;;17.20;100.00
45541;BME280;31265;49.680;8.608;2023-07-28T00:15:38;99780.69;;;17.19;100.00
45541;BME280;31265;49.680;8.608;2023-07-28T00:18:06;99785.16;;;17.24;100.00
45541;BME280;31265;49.680;8.608;2023-07-28T00:20:34;99774.56;;;17.23;100.00
45541;BME280;31265;49.680;8.608;2023-07-28T00:23:02;99778.06;;;17.23;100.00
45541;BME280;31265;49.680;8.608;2023-07-28T00:25:31;99772.38;;;17.21;100.00
45541;BME280;31265;49.680;8.608;2023-07-28T00:28:01;99778.91;;;17.26;100.00
45541;BME280;31265;49.680;8.608;2023-07-28T00:30:33;99770.41;;;17.24;100.00
45541;BME280;31265;49.680;8.608;2023-07-28T00:33:03;99766.88;;;17.23;100.00
45541;BME280;31265;49.680;8.608;2023-07-28T00:35:32;99774.56;;;17.23;100.00
45541;BME280;31265;49.680;8.608;2023-07-28T00:38:00;99767.59;;;17.24;100.00
45541;BME280;31265;49.680;8.608;2023-07-28T00:40:30;99765.63;;;17.26;100.00
45541;BME280;31265;49.680;8.608;2023-07-28T00:42:58;99759.28;;;17.26;100.00
45541;BME280;31265;49.680;8.608;2023-07-28T00:45:27;99757.22;;;17.26;100.00
45541;BME280;31265;49.680;8.608;2023-07-28T00:47:57;99757.00;;;17.22;100.00
45541;BME280;31265;49.680;8.608;2023-07-28T00:50:25;99748.06;;;17.26;100.00
45541;BME280;31265;49.680;8.608;2023-07-28T00:52:55;99755.03;;;17.25;100.00
45541;BME280;31265;49.680;8.608;2023-07-28T00:55:23;99750.56;;;17.19;100.00
45541;BME280;31265;49.680;8.608;2023-07-28T00:57:52;99745.25;;;17.26;100.00
45541;BME280;31265;49.680;8.608;2023-07-28T01:00:21;99756.47;;;17.26;100.00
45541;BME280;31265;49.680;8.608;2023-07-28T01:02:51;99747.88;;;17.22;100.00
45541;BME280;31265;49.680;8.608;2023-07-28T01:05:28;99765.22;;;17.32;100.00
45541;BME280;31265;49.680;8.608;2023-07-28T01:08:02;99752.03;;;17.34;100.00
45541;BME280;31265;49.680;8.608;2023-07-28T01:10:35;99771.22;;;17.40;100.00
45541;BME280;31265;49.680;8.608;2023-07-28T01:13:04;99760.63;;;17.38;100.00
45541;BME280;31265;49.680;8.608;2023-07-28T01:15:33;99765.22;;;17.32;100.00
45541;BME280;31265;49.680;8.608;2023-07-28T01:18:01;99757.63;;;17.34;100.00
45541;BME280;31265;49.680;8.608;2023-07-28T01:20:33;99753.78;;;17.28;100.00
45541;BME280;31265;49.680;8.608;2023-07-28T01:23:07;99759.91;;;17.38;100.00
45541;BME280;31265;49.680;8.608;2023-07-28T01:25:47;99746.81;;;17.42;100.00
45541;BME280;31265;49.680;8.608;2023-07-28T01:28:18;99760.22;;;17.44;100.00
45541;BME280;31265;49.680;8.608;2023-07-28T01:30:47;99769.34;;;17.45;100.00
45541;BME280;31265;49.680;8.608;2023-07-28T01:33:16;99759.69;;;17.48;100.00
45541;BME280;31265;49.680;8.608;2023-07-28T01:35:45;99758.97;;;17.47;100.00
45541;BME280;31265;49.680;8.608;2023-07-28T01:38:13;99765.38;;;17.50;100.00
45541;BME280;31265;49.680;8.608;2023-07-28T01:40:42;99767.59;;;17.51;100.00
45541;BME280;31265;49.680;8.608;2023-07-28T01:43:11;99765.50;;;17.52;100.00
45541;BME280;31265;49.680;8.608;2023-07-28T01:45:41;99759.88;;;17.52;100.00
45541;BME280;31265;49.680;8.608;2023-07-28T01:48:09;99763.41;;;17.52;100.00
45541;BME280;31265;49.680;8.608;2023-07-28T01:50:38;99755.66;;;17.51;100.00
45541;BME280;31265;49.680;8.608;2023-07-28T01:53:06;99762.97;;;17.58;100.00
45541;BME280;31265;49.680;8.608;2023-07-28T01:55:36;99763.50;;;17.54;100.00
45541;BME280;31265;49.680;8.608;2023-07-28T01:58:05;99758.44;;;17.51;100.00
45541;BME280;31265;49.680;8.608;2023-07-28T02:00:33;99761.97;;;17.51;100.00
45541;BME280;31265;49.680;8.608;2023-07-28T02:03:04;99759.34;;;17.55;100.00
45541;BME280;31265;49.680;8.608;2023-07-28T02:05:32;99745.88;;;17.52;100.00
45541;BME280;31265;49.680;8.608;2023-07-28T02:08:01;99764.97;;;17.55;100.00
45541;BME280;31265;49.680;8.608;2023-07-28T02:10:30;99765.38;;;17.50;100.00
45541;BME280;31265;49.680;8.608;2023-07-28T02:12:58;99757.69;;;17.50;100.00
45541;BME280;31265;49.680;8.608;2023-07-28T02:15:26;99757.91;;;17.54;100.00
45541;BME280;31265;49.680;8.608;2023-07-28T02:17:55;99762.06;;;17.53;100.00
45541;BME280;31265;49.680;8.608;2023-07-28T02:20:25;99751.38;;;17.50;100.00
45541;BME280;31265;49.680;8.608;2023-07-28T02:22:53;99759.16;;;17.51;100.00
45541;BME280;31265;49.680;8.608;2023-07-28T02:25:21;99756.25;;;17.49;100.00
45541;BME280;31265;49.680;8.608;2023-07-28T02:27:50;99761.97;;;17.51;100.00
45541;BME280;31265;49.680;8.608;2023-07-28T02:30:18;99753.34;;;17.47;100.00
45541;BME280;31265;49.680;8.608;2023-07-28T02:32:47;99752.41;;;17.56;100.00
45541;BME280;31265;49.680;8.608;2023-07-28T02:35:15;99753.75;;;17.55;100.00
45541;BME280;31265;49.680;8.608;2023-07-28T02:37:48;99755.81;;;17.55;100.00
45541;BME280;31265;49.680;8.608;2023-07-28T02:40:17;99752.09;;;17.50;100.00
45541;BME280;31265;49.680;8.608;2023-07-28T02:42:46;99756.25;;;17.49;100.00
45541;BME280;31265;49.680;8.608;2023-07-28T02:45:15;99760.59;;;17.52;100.00
45541;BME280;31265;49.680;8.608;2023-07-28T02:47:43;99758.63;;;17.55;100.00
45541;BME280;31265;49.680;8.608;2023-07-28T02:50:11;99762.25;;;17.57;100.00
45541;BME280;31265;49.680;8.608;2023-07-28T02:52:39;99766.94;;;17.53;100.00
45541;BME280;31265;49.680;8.608;2023-07-28T02:55:09;99766.84;;;17.51;100.00
45541;BME280;31265;49.680;8.608;2023-07-28T02:57:38;99772.66;;;17.55;100.00
45541;BME280;31265;49.680;8.608;2023-07-28T03:00:07;99771.81;;;17.52;100.00
45541;BME280;31265;49.680;8.608;2023-07-28T03:02:38;99761.97;;;17.51;100.00
45541;BME280;31265;49.680;8.608;2023-07-28T03:05:07;99757.69;;;17.50;100.00
45541;BME280;31265;49.680;8.608;2023-07-28T03:08:10;99759.28;;;17.53;100.00
45541;BME280;31265;49.680;8.608;2023-07-28T03:10:40;99755.72;;;17.53;100.00
45541;BME280;31265;49.680;8.608;2023-07-28T03:13:09;99772.47;;;17.51;100.00
45541;BME280;31265;49.680;8.608;2023-07-28T03:15:38;99765.50;;;17.52;100.00
45541;BME280;31265;49.680;8.608;2023-07-28T03:18:08;99770.38;;;17.51;100.00
45541;BME280;31265;49.680;8.608;2023-07-28T03:20:36;99761.88;;;17.49;100.00
45541;BME280;31265;49.680;8.608;2023-07-28T03:23:04;99764.56;;;17.47;100.00
45541;BME280;31265;49.680;8.608;2023-07-28T03:25:32;99767.38;;;17.47;100.00
45541;BME280;31265;49.680;8.608;2023-07-28T03:28:02;99762.78;;;17.54;100.00
45541;BME280;31265;49.680;8.608;2023-07-28T03:30:31;99763.50;;;17.54;100.00
45541;BME280;31265;49.680;8.608;2023-07-28T03:33:00;99766.44;;;17.56;100.00
45541;BME280;31265;49.680;8.608;2023-07-28T03:35:31;99762.06;;;17.53;100.00
45541;BME280;31265;49.680;8.608;2023-07-28T03:38:08;99758.44;;;17.51;100.00
45541;BME280;31265;49.680;8.608;2023-07-28T03:40:36;99757.09;;;17.52;100.00
45541;BME280;31265;49.680;8.608;2023-07-28T03:43:09;99762.06;;;17.53;100.00
45541;BME280;31265;49.680;8.608;2023-07-28T03:45:43;99765.28;;;17.48;100.00
45541;BME280;31265;49.680;8.608;2023-07-28T03:48:15;99764.56;;;17.47;100.00
45541;BME280;31265;49.680;8.608;2023-07-28T03:50:43;99771.66;;;17.48;100.00
45541;BME280;31265;49.680;8.608;2023-07-28T03:53:11;99763.94;;;17.49;100.00
45541;BME280;31265;49.680;8.608;2023-07-28T03:55:40;99767.38;;;17.47;100.00
45541;BME280;31265;49.680;8.608;2023-07-28T03:58:10;99770.38;;;17.51;100.00
45541;BME280;31265;49.680;8.608;2023-07-28T04:00:38;99766.94;;;17.53;100.00
45541;BME280;31265;49.680;8.608;2023-07-28T04:03:07;99772.03;;;17.56;100.00
45541;BME280;31265;49.680;8.608;2023-07-28T04:05:36;99765.16;;;17.59;100.00
45541;BME280;31265;49.680;8.608;2023-07-28T04:08:04;99774.94;;;17.58;100.00
45541;BME280;31265;49.680;8.608;2023-07-28T04:10:33;99772.88;;;17.59;100.00
45541;BME280;31265;49.680;8.608;2023-07-28T04:13:02;99770.16;;;17.61;100.00
45541;BME280;31265;49.680;8.608;2023-07-28T04:15:32;99765.72;;;17.56;100.00
45541;BME280;31265;49.680;8.608;2023-07-28T04:18:03;99769.66;;;17.51;100.00
45541;BME280;31265;49.680;8.608;2023-07-28T04:20:31;99771.81;;;17.52;100.00
45541;BME280;31265;49.680;8.608;2023-07-28T04:23:00;99760.59;;;17.52;100.00
45541;BME280;31265;49.680;8.608;2023-07-28T04:25:34;99767.75;;;17.55;100.00
45541;BME280;31265;49.680;8.608;2023-07-28T04:28:03;99769.13;;;17.54;100.00
45541;BME280;31265;49.680;8.608;2023-07-28T04:30:33;99771.31;;;17.56;100.00
45541;BME280;31265;49.680;8.608;2023-07-28T04:33:01;99766.22;;;17.52;100.00
45541;BME280;31265;49.680;8.608;2023-07-28T04:35:36;99774.00;;;17.54;100.00
45541;BME280;31265;49.680;8.608;2023-07-28T04:38:14;99772.66;;;17.55;100.00
45541;BME280;31265;49.680;8.608;2023-07-28T04:40:51;99777.31;;;17.64;100.00
45541;BME280;31265;49.680;8.608;2023-07-28T04:43:25;99781.16;;;17.71;100.00
45541;BME280;31265;49.680;8.608;2023-07-28T04:45:57;99787.06;;;17.77;100.00
45541;BME280;31265;49.680;8.608;2023-07-28T04:48:26;99792.66;;;17.77;100.00
45541;BME280;31265;49.680;8.608;2023-07-28T04:50:56;99799.44;;;17.86;100.00
45541;BME280;31265;49.680;8.608;2023-07-28T04:53:26;99802.88;;;17.84;100.00
45541;BME280;31265;49.680;8.608;2023-07-28T04:56:05;99802.19;;;17.99;100.00
45541;BME280;31265;49.680;8.608;2023-07-28T04:58:34;99808.25;;;17.94;100.00
45541;BME280;31265;49.680;8.608;2023-07-28T05:01:07;99806.47;;;18.00;100.00
45541;BME280;31265;49.680;8.608;2023-07-28T05:03:37;99811.66;;;18.06;100.00
45541;BME280;31265;49.680;8.608;2023-07-28T05:06:23;99807.72;;;17.97;100.00
45541;BME280;31265;49.680;8.608;2023-07-28T05:08:52;99809.78;;;17.97;100.00
45541;BME280;31265;49.680;8.608;2023-07-28T05:11:28;99811.88;;;17.96;100.00
45541;BME280;31265;49.680;8.608;2023-07-28T05:13:58;99818.84;;;17.95;100.00
45541;BME280;31265;49.680;8.608;2023-07-28T05:16:34;99813.31;;;17.97;100.00
45541;BME280;31265;49.680;8.608;2023-07-28T05:19:06;99818.22;;;17.97;100.00
45541;BME280;31265;49.680;8.608;2023-07-28T05:22:00;99812.91;;;18.03;100.00
45541;BME280;31265;49.680;8.608;2023-07-28T05:24:38;99818.19;;;18.11;100.00
45541;BME280;31265;49.680;8.608;2023-07-28T05:27:08;99819.00;;;18.13;100.00
45541;BME280;31265;49.680;8.608;2023-07-28T05:29:44;99814.94;;;18.16;100.00
45541;BME280;31265;49.680;8.608;2023-07-28T05:32:19;99814.94;;;18.16;100.00
45541;BME280;31265;49.680;8.608;2023-07-28T05:35:08;99812.94;;;18.19;100.00
45541;BME280;31265;49.680;8.608;2023-07-28T05:37:37;99815.31;;;18.24;100.00
45541;BME280;31265;49.680;8.608;2023-07-28T05:40:06;99814.22;;;18.16;100.00
45541;BME280;31265;49.680;8.608;2023-07-28T05:42:36;99825.81;;;18.24;100.00
45541;BME280;31265;49.680;8.608;2023-07-28T05:45:05;99820.50;;;18.30;100.00
45541;BME280;31265;49.680;8.608;2023-07-28T05:47:35;99818.69;;;18.37;100.00
45541;BME280;31265;49.680;8.608;2023-07-28T05:50:05;99813.63;;;18.33;100.00
45541;BME280;31265;49.680;8.608;2023-07-28T05:52:34;99819.63;;;18.41;100.00
45541;BME280;31265;49.680;8.608;2023-07-28T05:55:03;99825.25;;;18.41;100.00
45541;BME280;31265;49.680;8.608;2023-07-28T05:57:32;99833.38;;;18.35;100.00
45541;BME280;31265;49.680;8.608;2023-07-28T06:00:07;99828.28;;;18.32;100.00
45541;BME280;31265;49.680;8.608;2023-07-28T06:02:44;99837.84;;;18.40;100.00
45541;BME280;31265;49.680;8.608;2023-07-28T06:05:29;99838.22;;;18.48;100.00
45541;BME280;31265;49.680;8.608;2023-07-28T06:07:57;99830.00;;;18.53;100.00
45541;BME280;31265;49.680;8.608;2023-07-28T06:10:26;99830.09;;;18.55;100.00
45541;BME280;31265;49.680;8.608;2023-07-28T06:12:55;99839.50;;;18.61;100.00
45541;BME280;31265;49.680;8.608;2023-07-28T06:15:23;99845.38;;;18.52;100.00
45541;BME280;31265;49.680;8.608;2023-07-28T06:17:54;99854.28;;;18.62;100.00
45541;BME280;31265;49.680;8.608;2023-07-28T06:20:23;99853.44;;;18.59;100.00
45541;BME280;31265;49.680;8.608;2023-07-28T06:22:52;99854.56;;;18.68;100.00
45541;BME280;31265;49.680;8.608;2023-07-28T06:25:21;99853.72;;;18.79;100.00
45541;BME280;31265;49.680;8.608;2023-07-28T06:27:51;99854.72;;;18.86;100.00
45541;BME280;31265;49.680;8.608;2023-07-28T06:30:20;99853.72;;;18.95;100.00
45541;BME280;31265;49.680;8.608;2023-07-28T06:32:48;99854.19;;;19.05;100.00
45541;BME280;31265;49.680;8.608;2023-07-28T06:35:18;99867.34;;;19.17;100.00
45541;BME280;31265;49.680;8.608;2023-07-28T06:37:46;99860.53;;;19.06;100.00
45541;BME280;31265;49.680;8.608;2023-07-28T06:40:15;99871.03;;;19.21;100.00
45541;BME280;31265;49.680;8.608;2023-07-28T06:42:44;99876.03;;;19.23;100.00
45541;BME280;31265;49.680;8.608;2023-07-28T06:45:13;99884.28;;;19.19;100.00
45541;BME280;31265;49.680;8.608;2023-07-28T06:47:43;99884.28;;;19.19;100.00
45541;BME280;31265;49.680;8.608;2023-07-28T06:50:13;99886.28;;;19.16;100.00
45541;BME280;31265;49.680;8.608;2023-07-28T06:52:43;99888.63;;;19.06;100.00
45541;BME280;31265;49.680;8.608;2023-07-28T06:55:11;99896.97;;;19.04;100.00
45541;BME280;31265;49.680;8.608;2023-07-28T06:57:41;99894.97;;;19.06;100.00
45541;BME280;31265;49.680;8.608;2023-07-28T07:00:12;99894.44;;;19.10;100.00
45541;BME280;31265;49.680;8.608;2023-07-28T07:02:41;99892.44;;;18.97;100.00
45541;BME280;31265;49.680;8.608;2023-07-28T07:05:10;99886.53;;;18.90;100.00
45541;BME280;31265;49.680;8.608;2023-07-28T07:07:40;99888.19;;;18.96;100.00
45541;BME280;31265;49.680;8.608;2023-07-28T07:10:10;99896.97;;;19.04;100.00
45541;BME280;31265;49.680;8.608;2023-07-28T07:12:38;99891.19;;;19.00;100.00
45541;BME280;31265;49.680;8.608;2023-07-28T07:15:07;99893.00;;;19.09;100.00
45541;BME280;31265;49.680;8.608;2023-07-28T07:17:36;99903.06;;;19.30;100.00
45541;BME280;31265;49.680;8.608;2023-07-28T07:20:06;99896.00;;;19.45;100.00
45541;BME280;31265;49.680;8.608;2023-07-28T07:22:35;99898.25;;;19.48;100.00
45541;BME280;31265;49.680;8.608;2023-07-28T07:25:04;99901.81;;;19.49;100.00
45541;BME280;31265;49.680;8.608;2023-07-28T07:27:35;99904.78;;;19.53;100.00
45541;BME280;31265;49.680;8.608;2023-07-28T07:30:05;99908.03;;;19.63;100.00
45541;BME280;31265;49.680;8.608;2023-07-28T07:32:36;99909.97;;;19.74;100.00
45541;BME280;31265;49.680;8.608;2023-07-28T07:35:06;99912.06;;;19.74;100.00
45541;BME280;31265;49.680;8.608;2023-07-28T07:37:36;99916.34;;;19.93;100.00
45541;BME280;31265;49.680;8.608;2023-07-28T07:40:06;99918.81;;;20.01;100.00
45541;BME280;31265;49.680;8.608;2023-07-28T07:42:45;99928.31;;;20.09;100.00
45541;BME280;31265;49.680;8.608;2023-07-28T07:45:15;99909.38;;;20.28;100.00
45541;BME280;31265;49.680;8.608;2023-07-28T07:47:43;99915.91;;;20.50;100.00
45541;BME280;31265;49.680;8.608;2023-07-28T07:50:12;99917.97;;;21.03;100.00
45541;BME280;31265;49.680;8.608;2023-07-28T07:52:40;99917.88;;;21.01;100.00
45541;BME280;31265;49.680;8.608;2023-07-28T07:55:09;99912.72;;;21.34;100.00
45541;BME280;31265;49.680;8.608;2023-07-28T07:57:39;99916.31;;;21.74;100.00
45541;BME280;31265;49.680;8.608;2023-07-28T08:00:11;99923.75;;;21.85;100.00
45541;BME280;31265;49.680;8.608;2023-07-28T08:02:40;99923.03;;;21.85;100.00
45541;BME280;31265;49.680;8.608;2023-07-28T08:05:12;99924.34;;;21.82;100.00
45541;BME280;31265;49.680;8.608;2023-07-28T08:07:41;99927.00;;;21.98;100.00
45541;BME280;31265;49.680;8.608;2023-07-28T08:10:10;99928.09;;;21.88;100.00
45541;BME280;31265;49.680;8.608;2023-07-28T08:12:39;99927.19;;;22.24;100.00
45541;BME280;31265;49.680;8.608;2023-07-28T08:15:11;99927.13;;;22.44;100.00
45541;BME280;31265;49.680;8.608;2023-07-28T08:17:39;99928.16;;;22.32;100.00
45541;BME280;31265;49.680;8.608;2023-07-28T08:20:08;99923.22;;;22.77;100.00
45541;BME280;31265;49.680;8.608;2023-07-28T08:22:37;99924.16;;;21.98;100.00
45541;BME280;31265;49.680;8.608;2023-07-28T08:25:06;99927.25;;;21.64;100.00
45541;BME280;31265;49.680;8.608;2023-07-28T08:27:35;99921.59;;;21.44;100.00
45541;BME280;31265;49.680;8.608;2023-07-28T08:30:04;99923.28;;;21.71;100.00
45541;BME280;31265;49.680;8.608;2023-07-28T08:32:34;99928.69;;;21.45;100.00
45541;BME280;31265;49.680;8.608;2023-07-28T08:35:02;99929.03;;;21.75;100.00
45541;BME280;31265;49.680;8.608;2023-07-28T08:37:31;99934.53;;;22.11;100.00
45541;BME280;31265;49.680;8.608;2023-07-28T08:40:02;99939.69;;;21.97;100.00
45541;BME280;31265;49.680;8.608;2023-07-28T08:42:36;99939.47;;;22.32;100.00
45541;BME280;31265;49.680;8.608;2023-07-28T08:45:06;99937.19;;;22.27;100.00
45541;BME280;31265;49.680;8.608;2023-07-28T08:47:37;99938.22;;;21.96;100.00
45541;BME280;31265;49.680;8.608;2023-07-28T08:50:06;99946.91;;;22.02;100.00
45541;BME280;31265;49.680;8.608;2023-07-28T08:52:34;99947.00;;;21.64;100.00
45541;BME280;31265;49.680;8.608;2023-07-28T08:55:03;99943.59;;;21.87;100.00
45541;BME280;31265;49.680;8.608;2023-07-28T08:57:32;99940.78;;;21.87;100.00
45541;BME280;31265;49.680;8.608;2023-07-28T09:00:06;99941.00;;;21.94;100.00
45541;BME280;31265;49.680;8.608;2023-07-28T09:02:37;99942.50;;;21.97;100.00
45541;BME280;31265;49.680;8.608;2023-07-28T09:05:07;99950.75;;;21.90;100.00
45541;BME280;31265;49.680;8.608;2023-07-28T09:07:45;99945.78;;;21.69;100.00
45541;BME280;31265;49.680;8.608;2023-07-28T09:10:13;99936.19;;;21.78;100.00
45541;BME280;31265;49.680;8.608;2023-07-28T09:12:45;99941.19;;;22.20;100.00
45541;BME280;31265;49.680;8.608;2023-07-28T09:15:14;99942.34;;;22.79;100.00
45541;BME280;31265;49.680;8.608;2023-07-28T09:17:45;99946.63;;;22.80;100.00
45541;BME280;31265;49.680;8.608;2023-07-28T09:20:15;99947.38;;;22.58;100.00
45541;BME280;31265;49.680;8.608;2023-07-28T09:22:45;99950.06;;;22.54;100.00
45541;BME280;31265;49.680;8.608;2023-07-28T09:25:15;99953.88;;;22.41;100.00
45541;BME280;31265;49.680;8.608;2023-07-28T09:27:49;99945.00;;;22.72;100.00
45541;BME280;31265;49.680;8.608;2023-07-28T09:30:18;99944.94;;;23.16;100.00
45541;BME280;31265;49.680;8.608;2023-07-28T09:32:49;99947.03;;;23.66;100.00
45541;BME280;31265;49.680;8.608;2023-07-28T09:35:19;99945.63;;;23.41;100.00
45541;BME280;31265;49.680;8.608;2023-07-28T09:37:49;99949.72;;;23.60;100.00
45541;BME280;31265;49.680;8.608;2023-07-28T09:40:21;99950.34;;;24.09;100.00
45541;BME280;31265;49.680;8.608;2023-07-28T09:42:50;99941.47;;;24.51;100.00
45541;BME280;31265;49.680;8.608;2023-07-28T09:45:23;99939.72;;;24.09;100.00
45541;BME280;31265;49.680;8.608;2023-07-28T09:48:07;99940.41;;;24.66;100.00
45541;BME280;31265;49.680;8.608;2023-07-28T09:50:38;99939.97;;;23.91;100.00
45541;BME280;31265;49.680;8.608;2023-07-28T09:53:09;99940.09;;;23.45;100.00
45541;BME280;31265;49.680;8.608;2023-07-28T09:55:39;99949.34;;;23.98;100.00
45541;BME280;31265;49.680;8.608;2023-07-28T09:58:10;99946.78;;;24.36;100.00
45541;BME280;31265;49.680;8.608;2023-07-28T10:00:41;99939.47;;;24.27;100.00
45541;BME280;31265;49.680;8.608;2023-07-28T10:03:12;99936.34;;;23.63;100.00
45541;BME280;31265;49.680;8.608;2023-07-28T10:05:44;99936.97;;;23.59;100.00
45541;BME280;31265;49.680;8.608;2023-07-28T10:08:16;99938.00;;;23.22;100.00
45541;BME280;31265;49.680;8.608;2023-07-28T10:10:47;99945.72;;;22.97;100.00
45541;BME280;31265;49.680;8.608;2023-07-28T10:13:20;99944.47;;;22.56;100.00
45541;BME280;31265;49.680;8.608;2023-07-28T10:15:50;99953.22;;;22.42;100.00
45541;BME280;31265;49.680;8.608;2023-07-28T10:18:21;99945.91;;;22.57;100.00
45541;BME280;31265;49.680;8.608;2023-07-28T10:20:50;99946.75;;;22.84;100.00
45541;BME280;31265;49.680;8.608;2023-07-28T10:23:20;99948.97;;;23.09;100.00
45541;BME280;31265;49.680;8.608;2023-07-28T10:25:56;99948.41;;;23.39;100.00
45541;BME280;31265;49.680;8.608;2023-07-28T10:28:27;99947.88;;;23.21;100.00
45541;BME280;31265;49.680;8.608;2023-07-28T10:30:59;99950.19;;;22.80;100.00
45541;BME280;31265;49.680;8.608;2023-07-28T10:33:31;99955.75;;;23.24;100.00
45541;BME280;31265;49.680;8.608;2023-07-28T10:36:11;99958.28;;;23.14;100.00
45541;BME280;31265;49.680;8.608;2023-07-28T10:38:40;99961.03;;;22.88;100.00
45541;BME280;31265;49.680;8.608;2023-07-28T10:41:14;99956.97;;;22.49;100.00
45541;BME280;31265;49.680;8.608;2023-07-28T10:43:45;99955.56;;;22.72;100.00
45541;BME280;31265;49.680;8.608;2023-07-28T10:46:15;99955.50;;;22.70;100.00
45541;BME280;31265;49.680;8.608;2023-07-28T10:48:46;99956.31;;;22.50;100.00
45541;BME280;31265;49.680;8.608;2023-07-28T10:51:22;99955.25;;;22.84;100.00
45541;BME280;31265;49.680;8.608;2023-07-28T10:53:57;99961.13;;;22.92;100.00
45541;BME280;31265;49.680;8.608;2023-07-28T10:56:26;99959.50;;;23.55;100.00
45541;BME280;31265;49.680;8.608;2023-07-28T10:58:58;99959.91;;;23.95;100.00
45541;BME280;31265;49.680;8.608;2023-07-28T11:01:33;99964.56;;;24.39;100.00
45541;BME280;31265;49.680;8.608;2023-07-28T11:04:11;99962.13;;;23.73;100.00
45541;BME280;31265;49.680;8.608;2023-07-28T11:06:42;99957.50;;;23.59;100.00
45541;BME280;31265;49.680;8.608;2023-07-28T11:09:12;99958.50;;;23.70;100.00
45541;BME280;31265;49.680;8.608;2023-07-28T11:11:42;99953.00;;;24.02;100.00
45541;BME280;31265;49.680;8.608;2023-07-28T11:14:15;99956.25;;;23.40;100.00
45541;BME280;31265;49.680;8.608;2023-07-28T11:16:45;99960.84;;;23.28;100.00
45541;BME280;31265;49.680;8.608;2023-07-28T11:19:20;99956.88;;;23.13;100.00
45541;BME280;31265;49.680;8.608;2023-07-28T11:21:53;99958.66;;;23.02;100.00
45541;BME280;31265;49.680;8.608;2023-07-28T11:24:22;99963.31;;;22.93;100.00
45541;BME280;31265;49.680;8.608;2023-07-28T11:26:52;99963.47;;;22.75;100.00
45541;BME280;31265;49.680;8.608;2023-07-28T11:29:20;99960.72;;;22.78;100.00
45541;BME280;31265;49.680;8.608;2023-07-28T11:31:49;99962.09;;;22.76;100.00
45541;BME280;31265;49.680;8.608;2023-07-28T11:34:19;99957.66;;;22.93;100.00
45541;BME280;31265;49.680;8.608;2023-07-28T11:36:48;99958.06;;;23.06;100.00
45541;BME280;31265;49.680;8.608;2023-07-28T11:39:16;99963.72;;;23.06;100.00
45541;BME280;31265;49.680;8.608;2023-07-28T11:41:46;99961.41;;;23.24;100.00
45541;BME280;31265;49.680;8.608;2023-07-28T11:44:16;99954.94;;;23.20;100.00
45541;BME280;31265;49.680;8.608;2023-07-28T11:46:44;99963.94;;;23.14;100.00
45541;BME280;31265;49.680;8.608;2023-07-28T11:49:14;99961.44;;;23.00;100.00
45541;BME280;31265;49.680;8.608;2023-07-28T11:51:46;99963.47;;;23.22;100.00
45541;BME280;31265;49.680;8.608;2023-07-28T11:54:16;99968.41;;;23.21;100.00
45541;BME280;31265;49.680;8.608;2023-07-28T11:56:50;99971.75;;;22.91;100.00
45541;BME280;31265;49.680;8.608;2023-07-28T11:59:19;99962.16;;;23.25;100.00
45541;BME280;31265;49.680;8.608;2023-07-28T12:01:52;99971.41;;;23.03;100.00
45541;BME280;31265;49.680;8.608;2023-07-28T12:04:25;99966.66;;;23.58;100.00
45541;BME280;31265;49.680;8.608;2023-07-28T12:07:07;99966.38;;;23.24;100.00
45541;BME280;31265;49.680;8.608;2023-07-28T12:09:50;99964.09;;;23.42;100.00
45541;BME280;31265;49.680;8.608;2023-07-28T12:12:23;99972.63;;;23.20;100.00
45541;BME280;31265;49.680;8.608;2023-07-28T12:14:53;99970.34;;;23.14;100.00
45541;BME280;31265;49.680;8.608;2023-07-28T12:17:25;99966.56;;;22.62;100.00
45541;BME280;31265;49.680;8.608;2023-07-28T12:20:15;99976.69;;;22.69;100.00
45541;BME280;31265;49.680;8.608;2023-07-28T12:22:47;99968.84;;;22.89;100.00
45541;BME280;31265;49.680;8.608;2023-07-28T12:25:16;99973.66;;;22.85;100.00
45541;BME280;31265;49.680;8.608;2023-07-28T12:27:45;99975.34;;;22.94;100.00
45541;BME280;31265;49.680;8.608;2023-07-28T12:30:13;99970.38;;;22.70;100.00
45541;BME280;31265;49.680;8.608;2023-07-28T12:32:43;99977.16;;;22.39;100.00
45541;BME280;31265;49.680;8.608;2023-07-28T12:35:15;99970.31;;;22.46;100.00
45541;BME280;31265;49.680;8.608;2023-07-28T12:37:44;99960.56;;;22.29;100.00
45541;BME280;31265;49.680;8.608;2023-07-28T12:40:17;99972.50;;;22.48;100.00
45541;BME280;31265;49.680;8.608;2023-07-28T12:42:49;99974.97;;;22.60;100.00
45541;BME280;31265;49.680;8.608;2023-07-28T12:45:20;99972.09;;;22.36;100.00
45541;BME280;31265;49.680;8.608;2023-07-28T12:47:49;99968.06;;;22.65;100.00
45541;BME280;31265;49.680;8.608;2023-07-28T12:50:25;99965.53;;;22.51;100.00
45541;BME280;31265;49.680;8.608;2023-07-28T12:52:53;99977.47;;;22.71;100.00
45541;BME280;31265;49.680;8.608;2023-07-28T12:55:27;99975.44;;;22.52;100.00
45541;BME280;31265;49.680;8.608;2023-07-28T12:57:56;99979.50;;;22.47;100.00
45541;BME280;31265;49.680;8.608;2023-07-28T13:00:26;99974.38;;;22.41;100.00
45541;BME280;31265;49.680;8.608;2023-07-28T13:02:58;99980.84;;;22.44;100.00
45541;BME280;31265;49.680;8.608;2023-07-28T13:05:26;99984.22;;;22.40;100.00
45541;BME280;31265;49.680;8.608;2023-07-28T13:07:55;99987.03;;;22.18;100.00